sensor_id;sensor_type;location;lat;lon;timestamp;P1;durP1;ratioP1;P2;durP2;ratioP2
63926;SDS011;50103;47.960;21.712;2022-12-18T06:02:50;103.20;;;42.80;;
63926;SDS011;50103;47.960;21.712;2022-12-18T06:05:15;112.70;;;44.90;;
63926;SDS011;50103;47.960;21.712;2022-12-18T06:07:41;115.80;;;46.40;;
63926;SDS011;50103;47.960;21.712;2022-12-18T06:10:06;111.00;;;47.60;;
63926;SDS011;50103;47.960;21.712;2022-12-18T06:12:32;105.90;;;43.40;;
63926;SDS011;50103;47.960;21.712;2022-12-18T06:14:59;106.00;;;44.10;;
63926;SDS011;50103;47.960;21.712;2022-12-18T06:17:28;110.40;;;47.30;;
63926;SDS011;50103;47.960;21.712;2022-12-18T06:19:55;112.60;;;46.70;;
63926;SDS011;50103;47.960;21.712;2022-12-18T06:22:20;114.70;;;46.50;;
63926;SDS011;50103;47.960;21.712;2022-12-18T06:24:46;110.40;;;45.30;;
63926;SDS011;50103;47.960;21.712;2022-12-18T06:27:11;109.90;;;46.70;;
63926;SDS011;50103;47.960;21.712;2022-12-18T06:29:37;115.20;;;45.40;;
63926;SDS011;50103;47.960;21.712;2022-12-18T06:32:02;111.60;;;44.10;;
63926;SDS011;50103;47.960;21.712;2022-12-18T06:34:28;111.50;;;45.40;;
63926;SDS011;50103;47.960;21.712;2022-12-18T06:36:57;112.30;;;46.30;;
63926;SDS011;50103;47.960;21.712;2022-12-18T06:39:23;110.50;;;43.70;;
63926;SDS011;50103;47.960;21.712;2022-12-18T06:41:48;118.00;;;45.50;;
63926;SDS011;50103;47.960;21.712;2022-12-18T06:44:14;107.10;;;43.70;;
63926;SDS011;50103;47.960;21.712;2022-12-18T06:46:39;113.80;;;44.80;;
63926;SDS011;50103;47.960;21.712;2022-12-18T06:49:05;117.20;;;44.20;;
63926;SDS011;50103;47.960;21.712;2022-12-18T06:51:30;113.30;;;46.50;;
63926;SDS011;50103;47.960;21.712;2022-12-18T06:53:56;118.50;;;47.80;;
63926;SDS011;50103;47.960;21.712;2022-12-18T06:56:21;112.30;;;45.20;;
63926;SDS011;50103;47.960;21.712;2022-12-18T06:58:47;117.80;;;47.20;;
63926;SDS011;50103;47.960;21.712;2022-12-18T07:01:15;114.60;;;45.20;;
63926;SDS011;50103;47.960;21.712;2022-12-18T07:03:40;108.70;;;42.80;;
63926;SDS011;50103;47.960;21.712;2022-12-18T07:06:13;112.00;;;45.80;;
63926;SDS011;50103;47.960;21.712;2022-12-18T07:08:43;115.20;;;47.00;;
63926;SDS011;50103;47.960;21.712;2022-12-18T07:11:09;106.90;;;43.50;;
63926;SDS011;50103;47.960;21.712;2022-12-18T07:13:35;106.70;;;44.80;;
63926;SDS011;50103;47.960;21.712;2022-12-18T07:16:04;109.70;;;43.10;;
63926;SDS011;50103;47.960;21.712;2022-12-18T07:18:34;109.80;;;43.10;;
63926;SDS011;50103;47.960;21.712;2022-12-18T07:21:04;110.10;;;43.40;;
63926;SDS011;50103;47.960;21.712;2022-12-18T07:23:32;109.90;;;44.20;;
63926;SDS011;50103;47.960;21.712;2022-12-18T07:26:09;114.00;;;43.60;;
63926;SDS011;50103;47.960;21.712;2022-12-18T07:28:37;107.30;;;41.90;;
63926;SDS011;50103;47.960;21.712;2022-12-18T07:31:11;110.70;;;41.70;;
63926;SDS011;50103;47.960;21.712;2022-12-18T07:33:41;109.70;;;43.40;;
63926;SDS011;50103;47.960;21.712;2022-12-18T07:36:08;100.10;;;43.20;;
63926;SDS011;50103;47.960;21.712;2022-12-18T07:38:35;100.20;;;40.50;;
63926;SDS011;50103;47.960;21.712;2022-12-18T07:41:05;100.20;;;43.00;;
63926;SDS011;50103;47.960;21.712;2022-12-18T07:43:32;103.50;;;41.30;;
63926;SDS011;50103;47.960;21.712;2022-12-18T07:45:59;98.10;;;41.70;;
63926;SDS011;50103;47.960;21.712;2022-12-18T07:48:25;101.30;;;40.20;;
63926;SDS011;50103;47.960;21.712;2022-12-18T07:50:50;98.20;;;40.70;;
63926;SDS011;50103;47.960;21.712;2022-12-18T07:53:16;96.60;;;39.50;;
63926;SDS011;50103;47.960;21.712;2022-12-18T07:55:41;100.40;;;41.10;;
63926;SDS011;50103;47.960;21.712;2022-12-18T07:58:07;99.10;;;43.40;;
63926;SDS011;50103;47.960;21.712;2022-12-18T08:00:33;99.40;;;40.70;;
63926;SDS011;50103;47.960;21.712;2022-12-18T08:02:59;97.00;;;39.80;;
63926;SDS011;50103;47.960;21.712;2022-12-18T08:05:25;92.40;;;41.20;;
63926;SDS011;50103;47.960;21.712;2022-12-18T08:07:51;100.70;;;41.20;;
63926;SDS011;50103;47.960;21.712;2022-12-18T08:10:17;97.00;;;39.60;;
63926;SDS011;50103;47.960;21.712;2022-12-18T08:12:43;91.30;;;36.60;;
63926;SDS011;50103;47.960;21.712;2022-12-18T08:15:09;100.70;;;40.60;;
63926;SDS011;50103;47.960;21.712;2022-12-18T08:17:35;91.40;;;39.10;;
63926;SDS011;50103;47.960;21.712;2022-12-18T08:20:00;95.10;;;40.10;;
63926;SDS011;50103;47.960;21.712;2022-12-18T08:22:26;91.60;;;39.60;;
63926;SDS011;50103;47.960;21.712;2022-12-18T08:24:51;93.00;;;38.70;;
63926;SDS011;50103;47.960;21.712;2022-12-18T08:27:17;88.80;;;38.40;;
63926;SDS011;50103;47.960;21.712;2022-12-18T08:29:42;85.90;;;37.50;;
63926;SDS011;50103;47.960;21.712;2022-12-18T08:32:08;88.30;;;36.60;;
63926;SDS011;50103;47.960;21.712;2022-12-18T08:34:33;86.60;;;36.60;;
63926;SDS011;50103;47.960;21.712;2022-12-18T08:36:59;87.60;;;36.80;;
63926;SDS011;50103;47.960;21.712;2022-12-18T08:39:24;84.40;;;36.30;;
63926;SDS011;50103;47.960;21.712;2022-12-18T08:41:50;89.90;;;37.70;;
63926;SDS011;50103;47.960;21.712;2022-12-18T08:44:34;80.10;;;34.70;;
63926;SDS011;50103;47.960;21.712;2022-12-18T08:47:02;81.40;;;35.20;;
63926;SDS011;50103;47.960;21.712;2022-12-18T08:49:29;81.20;;;34.70;;
63926;SDS011;50103;47.960;21.712;2022-12-18T08:51:55;81.90;;;36.00;;
63926;SDS011;50103;47.960;21.712;2022-12-18T08:54:22;80.30;;;34.10;;
63926;SDS011;50103;47.960;21.712;2022-12-18T08:56:48;80.30;;;36.40;;
63926;SDS011;50103;47.960;21.712;2022-12-18T08:59:15;81.90;;;35.80;;
63926;SDS011;50103;47.960;21.712;2022-12-18T09:01:41;79.00;;;34.70;;
63926;SDS011;50103;47.960;21.712;2022-12-18T09:04:07;78.20;;;35.60;;
63926;SDS011;50103;47.960;21.712;2022-12-18T09:06:34;73.60;;;34.30;;
63926;SDS011;50103;47.960;21.712;2022-12-18T09:09:03;81.90;;;35.60;;
63926;SDS011;50103;47.960;21.712;2022-12-18T09:11:30;79.40;;;35.20;;
63926;SDS011;50103;47.960;21.712;2022-12-18T09:13:56;73.00;;;32.30;;
63926;SDS011;50103;47.960;21.712;2022-12-18T09:16:24;74.30;;;33.80;;
63926;SDS011;50103;47.960;21.712;2022-12-18T09:18:51;71.70;;;30.10;;
63926;SDS011;50103;47.960;21.712;2022-12-18T09:21:17;70.70;;;32.30;;
63926;SDS011;50103;47.960;21.712;2022-12-18T09:23:49;70.40;;;33.00;;
63926;SDS011;50103;47.960;21.712;2022-12-18T09:26:15;74.90;;;34.10;;
63926;SDS011;50103;47.960;21.712;2022-12-18T09:28:40;77.40;;;33.90;;
63926;SDS011;50103;47.960;21.712;2022-12-18T09:31:07;75.50;;;32.80;;
63926;SDS011;50103;47.960;21.712;2022-12-18T09:33:37;83.50;;;36.10;;
63926;SDS011;50103;47.960;21.712;2022-12-18T09:36:05;72.70;;;32.90;;
63926;SDS011;50103;47.960;21.712;2022-12-18T09:38:32;73.70;;;34.20;;
63926;SDS011;50103;47.960;21.712;2022-12-18T09:41:44;73.20;;;34.40;;
63926;SDS011;50103;47.960;21.712;2022-12-18T09:43:58;72.50;;;33.30;;
63926;SDS011;50103;47.960;21.712;2022-12-18T09:46:30;73.20;;;33.20;;
63926;SDS011;50103;47.960;21.712;2022-12-18T09:49:00;72.60;;;33.60;;
63926;SDS011;50103;47.960;21.712;2022-12-18T09:51:32;72.70;;;35.50;;
63926;SDS011;50103;47.960;21.712;2022-12-18T09:54:06;67.90;;;33.90;;
63926;SDS011;50103;47.960;21.712;2022-12-18T09:56:40;72.70;;;34.70;;
63926;SDS011;50103;47.960;21.712;2022-12-18T09:59:09;73.00;;;34.80;;
63926;SDS011;50103;47.960;21.712;2022-12-18T10:01:46;80.40;;;39.90;;
63926;SDS011;50103;47.960;21.712;2022-12-18T10:04:12;72.00;;;33.00;;
63926;SDS011;50103;47.960;21.712;2022-12-18T10:06:43;71.00;;;32.60;;
63926;SDS011;50103;47.960;21.712;2022-12-18T10:09:27;71.20;;;33.80;;
63926;SDS011;50103;47.960;21.712;2022-12-18T10:12:23;71.20;;;33.90;;
63926;SDS011;50103;47.960;21.712;2022-12-18T10:17:51;70.40;;;33.60;;
63926;SDS011;50103;47.960;21.712;2022-12-18T10:26:02;69.00;;;34.30;;
63926;SDS011;50103;47.960;21.712;2022-12-18T10:28:32;73.70;;;33.40;;
63926;SDS011;50103;47.960;21.712;2022-12-18T10:31:20;73.90;;;34.80;;
63926;SDS011;50103;47.960;21.712;2022-12-18T10:33:48;68.00;;;32.80;;
63926;SDS011;50103;47.960;21.712;2022-12-18T10:36:13;66.20;;;33.90;;
63926;SDS011;50103;47.960;21.712;2022-12-18T10:38:40;69.10;;;34.20;;
63926;SDS011;50103;47.960;21.712;2022-12-18T10:43:48;65.40;;;31.70;;
63926;SDS011;50103;47.960;21.712;2022-12-18T10:46:14;69.50;;;35.20;;
63926;SDS011;50103;47.960;21.712;2022-12-18T10:51:46;70.50;;;34.30;;
63926;SDS011;50103;47.960;21.712;2022-12-18T10:54:18;65.60;;;32.60;;
63926;SDS011;50103;47.960;21.712;2022-12-18T10:56:47;68.50;;;31.60;;
63926;SDS011;50103;47.960;21.712;2022-12-18T10:59:14;64.20;;;31.90;;
63926;SDS011;50103;47.960;21.712;2022-12-18T11:04:32;67.80;;;33.60;;
63926;SDS011;50103;47.960;21.712;2022-12-18T11:07:03;68.40;;;33.70;;
63926;SDS011;50103;47.960;21.712;2022-12-18T11:09:31;63.90;;;32.00;;
63926;SDS011;50103;47.960;21.712;2022-12-18T11:11:59;64.10;;;32.90;;
63926;SDS011;50103;47.960;21.712;2022-12-18T11:14:33;64.70;;;33.10;;
63926;SDS011;50103;47.960;21.712;2022-12-18T11:17:17;60.80;;;31.30;;
63926;SDS011;50103;47.960;21.712;2022-12-18T11:19:45;67.80;;;33.60;;
63926;SDS011;50103;47.960;21.712;2022-12-18T11:22:19;66.40;;;32.00;;
63926;SDS011;50103;47.960;21.712;2022-12-18T11:25:34;65.10;;;32.80;;
63926;SDS011;50103;47.960;21.712;2022-12-18T11:27:40;66.80;;;32.90;;
63926;SDS011;50103;47.960;21.712;2022-12-18T11:30:07;60.40;;;31.10;;
63926;SDS011;50103;47.960;21.712;2022-12-18T11:33:30;64.00;;;31.20;;
63926;SDS011;50103;47.960;21.712;2022-12-18T11:35:54;62.00;;;31.40;;
63926;SDS011;50103;47.960;21.712;2022-12-18T11:38:26;62.50;;;31.60;;
63926;SDS011;50103;47.960;21.712;2022-12-18T11:44:11;63.80;;;31.90;;
63926;SDS011;50103;47.960;21.712;2022-12-18T11:46:32;68.60;;;32.80;;
63926;SDS011;50103;47.960;21.712;2022-12-18T11:49:17;63.60;;;31.80;;
63926;SDS011;50103;47.960;21.712;2022-12-18T11:54:26;62.60;;;31.20;;
63926;SDS011;50103;47.960;21.712;2022-12-18T11:57:07;62.30;;;33.30;;
63926;SDS011;50103;47.960;21.712;2022-12-18T11:59:49;64.60;;;33.20;;
63926;SDS011;50103;47.960;21.712;2022-12-18T12:02:45;63.60;;;32.20;;
63926;SDS011;50103;47.960;21.712;2022-12-18T12:11:17;62.00;;;32.50;;
63926;SDS011;50103;47.960;21.712;2022-12-18T12:19:24;64.20;;;33.70;;
63926;SDS011;50103;47.960;21.712;2022-12-18T12:28:18;62.60;;;33.90;;
63926;SDS011;50103;47.960;21.712;2022-12-18T12:36:40;60.70;;;30.90;;
63926;SDS011;50103;47.960;21.712;2022-12-18T12:39:09;61.10;;;30.60;;
63926;SDS011;50103;47.960;21.712;2022-12-18T12:41:40;60.70;;;31.80;;
63926;SDS011;50103;47.960;21.712;2022-12-18T12:44:33;65.00;;;33.20;;
63926;SDS011;50103;47.960;21.712;2022-12-18T12:47:11;61.80;;;32.50;;
63926;SDS011;50103;47.960;21.712;2022-12-18T12:49:46;59.90;;;30.30;;
63926;SDS011;50103;47.960;21.712;2022-12-18T12:54:42;63.20;;;32.60;;
63926;SDS011;50103;47.960;21.712;2022-12-18T12:57:19;60.60;;;32.10;;
63926;SDS011;50103;47.960;21.712;2022-12-18T13:05:42;63.10;;;32.20;;
63926;SDS011;50103;47.960;21.712;2022-12-18T13:08:24;61.80;;;31.30;;
63926;SDS011;50103;47.960;21.712;2022-12-18T13:10:56;63.40;;;33.50;;
63926;SDS011;50103;47.960;21.712;2022-12-18T13:13:52;65.60;;;33.80;;
63926;SDS011;50103;47.960;21.712;2022-12-18T13:16:21;65.20;;;34.20;;
63926;SDS011;50103;47.960;21.712;2022-12-18T13:18:55;67.20;;;34.10;;
63926;SDS011;50103;47.960;21.712;2022-12-18T13:21:31;62.50;;;32.80;;
63926;SDS011;50103;47.960;21.712;2022-12-18T13:24:14;65.40;;;33.20;;
63926;SDS011;50103;47.960;21.712;2022-12-18T13:26:51;64.20;;;33.50;;
63926;SDS011;50103;47.960;21.712;2022-12-18T13:32:22;64.20;;;32.60;;
63926;SDS011;50103;47.960;21.712;2022-12-18T13:35:10;66.20;;;33.30;;
63926;SDS011;50103;47.960;21.712;2022-12-18T13:37:55;69.10;;;33.40;;
63926;SDS011;50103;47.960;21.712;2022-12-18T13:43:48;67.40;;;34.20;;
63926;SDS011;50103;47.960;21.712;2022-12-18T13:46:00;62.60;;;32.80;;
63926;SDS011;50103;47.960;21.712;2022-12-18T13:48:26;68.00;;;34.00;;
63926;SDS011;50103;47.960;21.712;2022-12-18T13:50:59;58.60;;;31.60;;
63926;SDS011;50103;47.960;21.712;2022-12-18T13:53:39;62.80;;;33.50;;
63926;SDS011;50103;47.960;21.712;2022-12-18T13:56:10;66.80;;;33.50;;
63926;SDS011;50103;47.960;21.712;2022-12-18T13:58:44;70.20;;;35.80;;
63926;SDS011;50103;47.960;21.712;2022-12-18T14:01:22;66.50;;;35.10;;
63926;SDS011;50103;47.960;21.712;2022-12-18T14:03:49;67.20;;;35.00;;
63926;SDS011;50103;47.960;21.712;2022-12-18T14:06:17;69.50;;;35.30;;
63926;SDS011;50103;47.960;21.712;2022-12-18T14:08:42;69.90;;;34.40;;
63926;SDS011;50103;47.960;21.712;2022-12-18T14:13:47;67.60;;;36.10;;
63926;SDS011;50103;47.960;21.712;2022-12-18T14:16:14;68.60;;;35.80;;
63926;SDS011;50103;47.960;21.712;2022-12-18T14:18:44;67.40;;;35.30;;
63926;SDS011;50103;47.960;21.712;2022-12-18T14:21:19;65.40;;;34.20;;
63926;SDS011;50103;47.960;21.712;2022-12-18T14:23:48;72.40;;;37.10;;
63926;SDS011;50103;47.960;21.712;2022-12-18T14:26:29;72.20;;;37.00;;
63926;SDS011;50103;47.960;21.712;2022-12-18T14:28:59;70.30;;;36.40;;
63926;SDS011;50103;47.960;21.712;2022-12-18T14:31:39;66.40;;;33.80;;
63926;SDS011;50103;47.960;21.712;2022-12-18T14:34:08;67.20;;;35.70;;
63926;SDS011;50103;47.960;21.712;2022-12-18T14:36:41;67.30;;;35.10;;
63926;SDS011;50103;47.960;21.712;2022-12-18T14:39:17;68.40;;;36.10;;
63926;SDS011;50103;47.960;21.712;2022-12-18T14:41:43;69.50;;;36.10;;
63926;SDS011;50103;47.960;21.712;2022-12-18T14:44:11;66.00;;;35.10;;
63926;SDS011;50103;47.960;21.712;2022-12-18T14:46:44;69.40;;;35.80;;
63926;SDS011;50103;47.960;21.712;2022-12-18T14:49:39;72.70;;;35.90;;
63926;SDS011;50103;47.960;21.712;2022-12-18T14:52:22;70.20;;;36.30;;
63926;SDS011;50103;47.960;21.712;2022-12-18T14:54:56;71.00;;;36.50;;
63926;SDS011;50103;47.960;21.712;2022-12-18T14:57:22;71.80;;;37.30;;
63926;SDS011;50103;47.960;21.712;2022-12-18T14:59:50;67.30;;;35.10;;
63926;SDS011;50103;47.960;21.712;2022-12-18T15:02:26;72.70;;;37.90;;
63926;SDS011;50103;47.960;21.712;2022-12-18T15:05:00;67.90;;;35.60;;
63926;SDS011;50103;47.960;21.712;2022-12-18T15:07:34;62.60;;;33.30;;
63926;SDS011;50103;47.960;21.712;2022-12-18T15:10:16;65.80;;;34.30;;
63926;SDS011;50103;47.960;21.712;2022-12-18T15:12:44;66.60;;;34.40;;
63926;SDS011;50103;47.960;21.712;2022-12-18T15:20:44;71.80;;;37.90;;
63926;SDS011;50103;47.960;21.712;2022-12-18T15:26:00;84.40;;;46.40;;
63926;SDS011;50103;47.960;21.712;2022-12-18T15:33:43;71.00;;;38.90;;
63926;SDS011;50103;47.960;21.712;2022-12-18T15:36:29;70.20;;;36.90;;
63926;SDS011;50103;47.960;21.712;2022-12-18T15:38:55;72.70;;;36.90;;
63926;SDS011;50103;47.960;21.712;2022-12-18T15:41:22;69.70;;;36.90;;
63926;SDS011;50103;47.960;21.712;2022-12-18T15:43:49;74.30;;;36.40;;
63926;SDS011;50103;47.960;21.712;2022-12-18T15:46:20;67.20;;;36.40;;
63926;SDS011;50103;47.960;21.712;2022-12-18T15:48:48;73.60;;;39.10;;
63926;SDS011;50103;47.960;21.712;2022-12-18T15:53:56;72.90;;;39.10;;
63926;SDS011;50103;47.960;21.712;2022-12-18T15:56:24;81.70;;;42.40;;
63926;SDS011;50103;47.960;21.712;2022-12-18T15:59:12;70.10;;;34.40;;
63926;SDS011;50103;47.960;21.712;2022-12-18T16:01:40;65.20;;;32.40;;
63926;SDS011;50103;47.960;21.712;2022-12-18T16:04:08;62.90;;;32.20;;
63926;SDS011;50103;47.960;21.712;2022-12-18T16:06:37;67.50;;;33.40;;
63926;SDS011;50103;47.960;21.712;2022-12-18T16:09:02;66.00;;;33.20;;
63926;SDS011;50103;47.960;21.712;2022-12-18T16:11:28;64.50;;;33.40;;
63926;SDS011;50103;47.960;21.712;2022-12-18T16:17:01;66.80;;;32.90;;
63926;SDS011;50103;47.960;21.712;2022-12-18T16:19:29;68.60;;;34.30;;
63926;SDS011;50103;47.960;21.712;2022-12-18T16:21:55;65.40;;;34.30;;
63926;SDS011;50103;47.960;21.712;2022-12-18T16:24:23;66.90;;;35.10;;
63926;SDS011;50103;47.960;21.712;2022-12-18T16:26:50;64.30;;;34.00;;
63926;SDS011;50103;47.960;21.712;2022-12-18T16:29:17;68.40;;;36.90;;
63926;SDS011;50103;47.960;21.712;2022-12-18T16:31:44;67.20;;;36.40;;
63926;SDS011;50103;47.960;21.712;2022-12-18T16:34:19;71.50;;;37.70;;
63926;SDS011;50103;47.960;21.712;2022-12-18T16:36:55;72.70;;;39.90;;
63926;SDS011;50103;47.960;21.712;2022-12-18T16:39:21;73.40;;;39.80;;
63926;SDS011;50103;47.960;21.712;2022-12-18T16:41:47;77.50;;;41.80;;
63926;SDS011;50103;47.960;21.712;2022-12-18T16:44:13;75.00;;;40.60;;
63926;SDS011;50103;47.960;21.712;2022-12-18T16:46:39;70.40;;;39.80;;
63926;SDS011;50103;47.960;21.712;2022-12-18T16:49:08;69.90;;;37.90;;
63926;SDS011;50103;47.960;21.712;2022-12-18T16:51:35;74.50;;;40.20;;
63926;SDS011;50103;47.960;21.712;2022-12-18T16:54:01;72.20;;;38.30;;
63926;SDS011;50103;47.960;21.712;2022-12-18T16:56:26;75.50;;;40.90;;
63926;SDS011;50103;47.960;21.712;2022-12-18T16:58:52;72.30;;;39.90;;
63926;SDS011;50103;47.960;21.712;2022-12-18T17:01:20;74.90;;;40.10;;
63926;SDS011;50103;47.960;21.712;2022-12-18T17:03:52;69.30;;;38.80;;
63926;SDS011;50103;47.960;21.712;2022-12-18T17:06:20;73.80;;;39.60;;
63926;SDS011;50103;47.960;21.712;2022-12-18T17:08:47;69.10;;;39.70;;
63926;SDS011;50103;47.960;21.712;2022-12-18T17:11:12;73.40;;;37.40;;
63926;SDS011;50103;47.960;21.712;2022-12-18T17:13:38;69.80;;;37.00;;
63926;SDS011;50103;47.960;21.712;2022-12-18T17:16:04;68.90;;;36.20;;
63926;SDS011;50103;47.960;21.712;2022-12-18T17:18:31;66.80;;;38.50;;
63926;SDS011;50103;47.960;21.712;2022-12-18T17:20:58;69.90;;;36.80;;
63926;SDS011;50103;47.960;21.712;2022-12-18T17:23:25;71.50;;;37.30;;
63926;SDS011;50103;47.960;21.712;2022-12-18T17:25:58;74.70;;;40.00;;
63926;SDS011;50103;47.960;21.712;2022-12-18T17:28:24;73.00;;;38.70;;
63926;SDS011;50103;47.960;21.712;2022-12-18T17:30:54;69.90;;;38.30;;
63926;SDS011;50103;47.960;21.712;2022-12-18T17:33:20;61.70;;;33.10;;
63926;SDS011;50103;47.960;21.712;2022-12-18T17:35:48;63.90;;;33.30;;
63926;SDS011;50103;47.960;21.712;2022-12-18T17:38:13;61.10;;;32.00;;
63926;SDS011;50103;47.960;21.712;2022-12-18T17:40:39;55.90;;;28.80;;
63926;SDS011;50103;47.960;21.712;2022-12-18T17:43:06;51.00;;;25.80;;
63926;SDS011;50103;47.960;21.712;2022-12-18T17:45:36;49.50;;;25.30;;
63926;SDS011;50103;47.960;21.712;2022-12-18T17:48:05;51.60;;;25.80;;
63926;SDS011;50103;47.960;21.712;2022-12-18T17:50:32;52.90;;;24.90;;
63926;SDS011;50103;47.960;21.712;2022-12-18T17:52:58;50.10;;;25.50;;
63926;SDS011;50103;47.960;21.712;2022-12-18T17:55:25;51.70;;;26.50;;
63926;SDS011;50103;47.960;21.712;2022-12-18T17:57:52;49.60;;;25.20;;
63926;SDS011;50103;47.960;21.712;2022-12-18T18:00:18;51.10;;;23.70;;
63926;SDS011;50103;47.960;21.712;2022-12-18T18:02:44;51.30;;;26.70;;
63926;SDS011;50103;47.960;21.712;2022-12-18T18:05:10;50.90;;;25.60;;
63926;SDS011;50103;47.960;21.712;2022-12-18T18:07:38;54.40;;;26.60;;
63926;SDS011;50103;47.960;21.712;2022-12-18T18:10:04;50.90;;;26.20;;
63926;SDS011;50103;47.960;21.712;2022-12-18T18:12:31;51.10;;;26.90;;
63926;SDS011;50103;47.960;21.712;2022-12-18T18:15:16;54.50;;;27.50;;
63926;SDS011;50103;47.960;21.712;2022-12-18T18:17:43;53.40;;;27.30;;
63926;SDS011;50103;47.960;21.712;2022-12-18T18:20:09;54.00;;;28.50;;
63926;SDS011;50103;47.960;21.712;2022-12-18T18:22:38;52.50;;;25.50;;
63926;SDS011;50103;47.960;21.712;2022-12-18T18:25:06;52.00;;;26.60;;
63926;SDS011;50103;47.960;21.712;2022-12-18T18:27:33;47.00;;;24.70;;
63926;SDS011;50103;47.960;21.712;2022-12-18T18:29:58;53.20;;;26.70;;
63926;SDS011;50103;47.960;21.712;2022-12-18T18:32:24;53.30;;;25.60;;
63926;SDS011;50103;47.960;21.712;2022-12-18T18:34:49;51.60;;;24.00;;
63926;SDS011;50103;47.960;21.712;2022-12-18T18:37:15;48.70;;;23.90;;
63926;SDS011;50103;47.960;21.712;2022-12-18T18:39:40;51.90;;;25.60;;
63926;SDS011;50103;47.960;21.712;2022-12-18T18:42:06;52.60;;;25.70;;
63926;SDS011;50103;47.960;21.712;2022-12-18T18:44:32;52.70;;;26.40;;
63926;SDS011;50103;47.960;21.712;2022-12-18T18:46:58;49.60;;;24.70;;
63926;SDS011;50103;47.960;21.712;2022-12-18T18:49:24;46.30;;;22.10;;
63926;SDS011;50103;47.960;21.712;2022-12-18T18:51:53;48.30;;;23.60;;
63926;SDS011;50103;47.960;21.712;2022-12-18T18:54:19;46.50;;;22.90;;
63926;SDS011;50103;47.960;21.712;2022-12-18T18:56:47;45.40;;;21.60;;
63926;SDS011;50103;47.960;21.712;2022-12-18T18:59:13;46.70;;;22.60;;
63926;SDS011;50103;47.960;21.712;2022-12-18T19:01:40;47.90;;;21.40;;
63926;SDS011;50103;47.960;21.712;2022-12-18T19:04:06;45.10;;;21.70;;
63926;SDS011;50103;47.960;21.712;2022-12-18T19:06:31;45.60;;;21.70;;
63926;SDS011;50103;47.960;21.712;2022-12-18T19:08:57;43.10;;;20.20;;
63926;SDS011;50103;47.960;21.712;2022-12-18T19:11:23;44.30;;;20.90;;
63926;SDS011;50103;47.960;21.712;2022-12-18T19:14:09;43.20;;;20.00;;
63926;SDS011;50103;47.960;21.712;2022-12-18T19:16:37;47.10;;;21.10;;
63926;SDS011;50103;47.960;21.712;2022-12-18T19:19:03;42.40;;;19.70;;
63926;SDS011;50103;47.960;21.712;2022-12-18T19:21:28;45.90;;;20.50;;
63926;SDS011;50103;47.960;21.712;2022-12-18T19:23:56;43.30;;;19.80;;
63926;SDS011;50103;47.960;21.712;2022-12-18T19:26:22;44.10;;;20.20;;
63926;SDS011;50103;47.960;21.712;2022-12-18T19:28:48;46.50;;;19.70;;
63926;SDS011;50103;47.960;21.712;2022-12-18T19:31:15;46.70;;;20.90;;
63926;SDS011;50103;47.960;21.712;2022-12-18T19:33:43;46.90;;;20.30;;
63926;SDS011;50103;47.960;21.712;2022-12-18T19:36:13;49.60;;;20.80;;
63926;SDS011;50103;47.960;21.712;2022-12-18T19:38:42;45.00;;;20.40;;
63926;SDS011;50103;47.960;21.712;2022-12-18T19:41:08;43.90;;;19.10;;
63926;SDS011;50103;47.960;21.712;2022-12-18T19:43:37;44.70;;;21.00;;
63926;SDS011;50103;47.960;21.712;2022-12-18T19:46:04;48.50;;;21.20;;
63926;SDS011;50103;47.960;21.712;2022-12-18T19:48:31;46.70;;;22.20;;
63926;SDS011;50103;47.960;21.712;2022-12-18T19:51:02;46.50;;;21.20;;
63926;SDS011;50103;47.960;21.712;2022-12-18T19:53:48;48.90;;;21.30;;
63926;SDS011;50103;47.960;21.712;2022-12-18T19:56:16;45.20;;;20.90;;
63926;SDS011;50103;47.960;21.712;2022-12-18T19:58:43;48.30;;;22.60;;
